CheckWX is a tool to help pilots better visualize weather data.  It is not intended as a substitute for an official pre-flight weather briefing.

09:06:08 UTC

FADY METAR
De Aar Military Airport
De Aar, South Africa
Current

2 hours ago

FADY 220726Z 08005KT CAVOK 26/11 Q1020
Observed
Feb-22 @ 07:26 UTC
Wind
  • 080° at 5 KTS
Visibility
10,000+ meters
Flight Rules
VFR
Cloud Levels
  • Clear skies
Temperature
26°C / 79°F
Dewpoint
11°C / 52°F
Humidity
39%
Altimeter
30.12" Hg
Pressure
1019.92 hPa
Previous

3 hours ago

FADY 220627Z 12009KT CAVOK 22/12 Q1020
Observed
Feb-22 @ 06:27 UTC
Wind
  • 120° at 9 KTS
Visibility
10,000+ meters
Flight Rules
VFR
Cloud Levels
  • Clear skies
Temperature
22°C / 72°F
Dewpoint
12°C / 54°F
Humidity
53%
Altimeter
30.12" Hg
Pressure
1019.92 hPa